createdAt,value
2018-07-04T00:02:28.296Z,100733.69
2018-07-04T00:05:12.975Z,100730.34
2018-07-04T00:07:57.702Z,100728.83
2018-07-04T00:10:42.456Z,100730.47
2018-07-04T00:13:27.192Z,100732.85
2018-07-04T00:16:11.947Z,100735.16
2018-07-04T00:18:56.623Z,100732.70
2018-07-04T00:21:41.387Z,100730.62
2018-07-04T00:24:26.215Z,100728.59
2018-07-04T00:27:11.026Z,100726.66
2018-07-04T00:29:55.675Z,100727.33
2018-07-04T00:32:40.592Z,100731.38
2018-07-04T00:35:25.255Z,100730.31
2018-07-04T00:38:09.927Z,100732.20
2018-07-04T00:40:54.679Z,100739.76
2018-07-04T00:43:39.456Z,100730.66
2018-07-04T00:46:24.306Z,100728.65
2018-07-04T00:49:08.951Z,100731.44
2018-07-04T00:51:53.815Z,100737.25
2018-07-04T00:54:38.587Z,100730.47
2018-07-04T00:57:23.256Z,100729.25
2018-07-04T01:00:07.964Z,100734.22
2018-07-04T01:02:52.651Z,100733.14
2018-07-04T01:05:37.512Z,100726.33
2018-07-04T01:08:22.159Z,100727.38
2018-07-04T01:11:06.877Z,100729.31
2018-07-04T01:13:51.593Z,100730.20
2018-07-04T01:16:36.194Z,100726.20
2018-07-04T01:19:21.101Z,100720.84
2018-07-04T01:22:05.709Z,100724.41
2018-07-04T01:24:50.556Z,100729.27
2018-07-04T01:27:35.406Z,100717.91
2018-07-04T01:30:20.124Z,100722.69
2018-07-04T01:33:04.784Z,100724.42
2018-07-04T01:35:49.698Z,100726.70
2018-07-04T01:38:34.476Z,100722.11
2018-07-04T01:41:19.237Z,100720.92
2018-07-04T01:44:04.253Z,100728.78
2018-07-04T01:46:48.993Z,100725.66
2018-07-04T01:49:33.861Z,100724.89
2018-07-04T01:52:18.766Z,100719.85
2018-07-04T01:55:03.411Z,100719.56
2018-07-04T01:57:48.079Z,100717.41
2018-07-04T02:00:32.795Z,100711.95
2018-07-04T02:03:17.500Z,100705.23
2018-07-04T02:06:02.177Z,100709.62
2018-07-04T02:08:46.862Z,100707.27
2018-07-04T02:11:31.624Z,100710.92
2018-07-04T02:14:16.415Z,100705.02
2018-07-04T02:17:01.296Z,100704.59
2018-07-04T02:19:45.909Z,100706.41
2018-07-04T02:22:30.611Z,100710.56
2018-07-04T02:25:15.445Z,100711.09
2018-07-04T02:28:00.964Z,100708.25
2018-07-04T02:30:45.692Z,100715.80
2018-07-04T02:33:31.430Z,100712.92
2018-07-04T02:36:15.961Z,100710.89
2018-07-04T02:39:00.545Z,100713.88
2018-07-04T02:41:45.296Z,100710.92
2018-07-04T02:44:29.968Z,100704.42
2018-07-04T02:47:31.355Z,100715.07
2018-07-04T02:50:16.088Z,100717.39
2018-07-04T02:53:00.747Z,100713.17
2018-07-04T02:55:45.388Z,100713.00
2018-07-04T02:58:30.131Z,100712.31
2018-07-04T03:01:14.926Z,100714.98
2018-07-04T03:03:59.639Z,100717.55
2018-07-04T03:06:44.258Z,100709.00
2018-07-04T03:09:28.825Z,100709.02
2018-07-04T03:12:13.538Z,100708.23
2018-07-04T03:14:58.149Z,100709.16
2018-07-04T03:17:42.897Z,100713.03
2018-07-04T03:20:27.485Z,100712.64
2018-07-04T03:23:12.220Z,100709.62
2018-07-04T03:25:56.974Z,100704.48
2018-07-04T03:28:41.623Z,100711.72
2018-07-04T03:31:26.352Z,100707.90
2018-07-04T03:34:11.081Z,100706.20
2018-07-04T03:36:55.675Z,100705.41
2018-07-04T03:39:40.476Z,100706.89
2018-07-04T03:42:25.146Z,100705.69
2018-07-04T03:45:09.803Z,100707.75
2018-07-04T03:47:54.566Z,100711.20
2018-07-04T03:50:39.293Z,100702.23
2018-07-04T03:53:23.936Z,100706.08
2018-07-04T03:56:08.597Z,100711.13
2018-07-04T03:58:53.161Z,100714.00
2018-07-04T04:01:37.847Z,100716.87
2018-07-04T04:04:22.393Z,100711.97
2018-07-04T04:07:07.040Z,100711.34
2018-07-04T04:09:51.832Z,100710.36
2018-07-04T04:12:36.500Z,100708.74
2018-07-04T04:15:22.123Z,100701.63
2018-07-04T04:18:06.793Z,100704.63
2018-07-04T04:20:51.449Z,100704.95
2018-07-04T04:23:36.101Z,100700.48
2018-07-04T04:26:20.809Z,100702.97
2018-07-04T04:29:05.490Z,100698.06
2018-07-04T04:31:50.149Z,100708.62
2018-07-04T04:34:34.717Z,100708.91
2018-07-04T04:37:19.392Z,100707.05
2018-07-04T04:40:04.006Z,100710.28
2018-07-04T04:42:48.526Z,100707.21
2018-07-04T04:45:33.263Z,100709.73
2018-07-04T04:48:17.955Z,100707.03
2018-07-04T04:51:02.725Z,100702.50
2018-07-04T04:53:47.440Z,100709.16
2018-07-04T04:56:32.020Z,100699.45
2018-07-04T04:59:16.725Z,100704.77
2018-07-04T05:02:01.268Z,100696.42
2018-07-04T05:04:45.921Z,100698.81
2018-07-04T05:07:30.591Z,100699.81
2018-07-04T05:10:15.200Z,100699.50
2018-07-04T05:12:59.969Z,100697.48
2018-07-04T05:15:44.633Z,100699.27
2018-07-04T05:18:29.189Z,100698.75
2018-07-04T05:21:13.879Z,100700.58
2018-07-04T05:23:58.684Z,100700.77
2018-07-04T05:26:43.238Z,100703.64
2018-07-04T05:29:27.873Z,100708.23
2018-07-04T05:32:12.426Z,100707.25
2018-07-04T05:34:57.126Z,100698.47
2018-07-04T05:37:41.960Z,100705.92
2018-07-04T05:40:26.667Z,100701.89
2018-07-04T05:43:11.230Z,100702.30
2018-07-04T05:45:55.894Z,100701.78
2018-07-04T05:48:40.587Z,100705.31
2018-07-04T05:51:25.360Z,100705.73
2018-07-04T05:54:09.972Z,100706.33
2018-07-04T05:56:54.645Z,100703.30
2018-07-04T05:59:39.320Z,100700.31
2018-07-04T06:02:23.997Z,100698.35
2018-07-04T06:05:08.600Z,100699.97
2018-07-04T06:07:53.382Z,100696.83
2018-07-04T06:10:38.041Z,100692.70
2018-07-04T06:13:22.836Z,100687.00
2018-07-04T06:16:07.438Z,100689.82
2018-07-04T06:18:52.108Z,100684.99
2018-07-04T06:21:36.807Z,100691.48
2018-07-04T06:24:21.345Z,100687.30
2018-07-04T06:27:05.910Z,100684.52
2018-07-04T06:29:50.417Z,100688.70
2018-07-04T06:32:35.070Z,100687.05
2018-07-04T06:35:19.687Z,100687.14
2018-07-04T06:37:51.944Z,100683.30
2018-07-04T06:40:24.218Z,100687.87
2018-07-04T06:42:56.576Z,100688.53
2018-07-04T06:45:28.872Z,100686.00
2018-07-04T06:48:01.126Z,100679.34
2018-07-04T06:50:33.462Z,100679.30
2018-07-04T06:53:05.716Z,100682.66
2018-07-04T06:55:37.991Z,100681.47
2018-07-04T06:58:10.228Z,100682.17
2018-07-04T07:00:42.512Z,100677.94
2018-07-04T07:03:27.098Z,100677.75
2018-07-04T07:06:11.756Z,100671.80
2018-07-04T07:08:56.356Z,100672.43
2018-07-04T07:11:41.098Z,100669.64
2018-07-04T07:14:25.779Z,100670.06
2018-07-04T07:17:10.217Z,100664.91
2018-07-04T07:19:54.910Z,100670.92
2018-07-04T07:22:39.559Z,100670.45
2018-07-04T07:25:24.060Z,100667.45
2018-07-04T07:28:08.837Z,100675.30
2018-07-04T07:30:53.398Z,100672.84
2018-07-04T07:33:37.972Z,100671.53
2018-07-04T07:36:22.728Z,100668.03
2018-07-04T07:39:07.463Z,100667.09
2018-07-04T07:41:52.178Z,100659.61
2018-07-04T07:44:36.722Z,100660.67
2018-07-04T07:47:21.190Z,100661.20
2018-07-04T07:50:05.935Z,100653.50
2018-07-04T07:52:50.589Z,100652.33
2018-07-04T07:55:35.144Z,100651.28
2018-07-04T07:58:19.887Z,100648.28
2018-07-04T08:01:04.443Z,100647.60
2018-07-04T08:03:49.119Z,100647.23
2018-07-04T08:06:33.700Z,100644.73
2018-07-04T08:09:18.281Z,100648.30
2018-07-04T08:12:03.463Z,100643.91
2018-07-04T08:14:48.156Z,100644.77
2018-07-04T08:17:32.869Z,100643.52
2018-07-04T08:20:17.535Z,100638.06
2018-07-04T08:23:02.330Z,100642.78
2018-07-04T08:25:46.969Z,100646.64
2018-07-04T08:28:31.602Z,100639.62
2018-07-04T08:31:16.301Z,100637.00
2018-07-04T08:34:00.968Z,100633.57
2018-07-04T08:36:45.635Z,100636.33
2018-07-04T08:39:30.314Z,100631.92
2018-07-04T08:42:15.058Z,100631.12
2018-07-04T08:44:59.687Z,100636.66
2018-07-04T08:47:44.352Z,100632.39
2018-07-04T08:50:29.040Z,100635.36
2018-07-04T08:53:13.718Z,100627.98
2018-07-04T08:55:58.329Z,100627.84
2018-07-04T08:58:43.068Z,100629.33
2018-07-04T09:01:28.369Z,100624.13
2018-07-04T09:04:13.012Z,100619.11
2018-07-04T09:06:57.694Z,100620.39
2018-07-04T09:09:42.404Z,100613.59
2018-07-04T09:12:27.067Z,100618.45
2018-07-04T09:15:11.626Z,100610.83
2018-07-04T09:17:56.314Z,100615.88
2018-07-04T09:20:41.052Z,100614.77
2018-07-04T09:23:25.755Z,100611.27
2018-07-04T09:26:10.799Z,100605.32
2018-07-04T09:28:55.248Z,100605.66
2018-07-04T09:31:39.827Z,100606.41
2018-07-04T09:34:24.364Z,100600.32
2018-07-04T09:37:09.122Z,100593.51
2018-07-04T09:39:53.646Z,100599.56
2018-07-04T09:42:38.392Z,100594.89
2018-07-04T09:45:23.399Z,100590.47
2018-07-04T09:48:07.858Z,100589.16
2018-07-04T09:50:52.805Z,100582.42
2018-07-04T09:53:37.616Z,100581.77
2018-07-04T09:56:22.130Z,100578.30
2018-07-04T09:59:06.860Z,100577.12
2018-07-04T10:01:51.415Z,100575.34
2018-07-04T10:04:35.935Z,100573.05
2018-07-04T10:07:20.576Z,100568.61
2018-07-04T10:10:05.225Z,100565.07
2018-07-04T10:12:49.849Z,100561.31
2018-07-04T10:15:34.504Z,100563.92
2018-07-04T10:18:19.156Z,100555.02
2018-07-04T10:21:03.751Z,100559.45
2018-07-04T10:23:48.415Z,100547.84
2018-07-04T10:26:33.054Z,100551.20
2018-07-04T10:29:17.673Z,100545.70
2018-07-04T10:32:02.377Z,100549.98
2018-07-04T10:34:47.148Z,100541.34
2018-07-04T10:37:31.998Z,100548.11
2018-07-04T10:40:16.534Z,100539.47
2018-07-04T10:43:01.163Z,100536.73
2018-07-04T10:45:45.580Z,100530.48
2018-07-04T10:48:30.239Z,100528.16
2018-07-04T10:51:15.012Z,100528.62
2018-07-04T10:53:59.768Z,100524.08
2018-07-04T10:56:44.510Z,100521.00
2018-07-04T10:59:29.162Z,100524.00
2018-07-04T11:02:13.760Z,100517.78
2018-07-04T11:04:58.644Z,100520.86
2018-07-04T11:07:43.444Z,100521.86
2018-07-04T11:10:28.111Z,100518.55
2018-07-04T11:13:12.668Z,100520.50
2018-07-04T11:15:57.400Z,100512.59
2018-07-04T11:18:42.095Z,100516.23
2018-07-04T11:21:27.040Z,100511.31
2018-07-04T11:24:11.648Z,100509.55
2018-07-04T11:26:56.312Z,100507.73
2018-07-04T11:29:41.078Z,100506.75
2018-07-04T11:32:25.785Z,100497.17
2018-07-04T11:35:10.528Z,100499.13
2018-07-04T11:37:55.147Z,100497.47
2018-07-04T11:40:39.761Z,100498.47
2018-07-04T11:43:24.444Z,100495.20
2018-07-04T11:45:58.852Z,100494.22
2018-07-04T11:48:31.116Z,100490.89
2018-07-04T11:51:03.369Z,100488.63
2018-07-04T11:53:35.667Z,100488.11
2018-07-04T11:56:07.933Z,100488.85
2018-07-04T11:58:40.184Z,100493.31
2018-07-04T12:01:12.439Z,100493.16
2018-07-04T12:03:57.023Z,100489.77
2018-07-04T12:06:41.689Z,100499.64
2018-07-04T12:09:13.986Z,100492.57
2018-07-04T12:11:46.388Z,100493.72
2018-07-04T12:14:18.675Z,100489.28
2018-07-04T12:16:50.921Z,100491.23
2018-07-04T12:19:23.385Z,100482.66
2018-07-04T12:21:55.635Z,100472.77
2018-07-04T12:24:27.915Z,100470.76
2018-07-04T12:27:00.232Z,100469.31
2018-07-04T12:29:32.482Z,100466.48
2018-07-04T12:32:04.764Z,100473.38
2018-07-04T12:34:37.017Z,100466.81
2018-07-04T12:37:09.251Z,100467.16
2018-07-04T12:39:41.529Z,100460.22
2018-07-04T12:42:13.799Z,100463.70
2018-07-04T12:44:46.083Z,100456.61
2018-07-04T12:47:18.384Z,100460.73
2018-07-04T12:49:50.620Z,100464.64
2018-07-04T12:52:22.867Z,100470.11
2018-07-04T12:55:11.297Z,100460.38
2018-07-04T12:57:55.749Z,100464.84
2018-07-04T13:00:40.496Z,100459.70
2018-07-04T13:03:24.929Z,100457.87
2018-07-04T13:06:09.536Z,100449.66
2018-07-04T13:08:54.068Z,100444.70
2018-07-04T13:11:38.767Z,100441.21
2018-07-04T13:14:23.358Z,100443.50
2018-07-04T13:17:08.256Z,100430.53
2018-07-04T13:19:52.879Z,100427.05
2018-07-04T13:22:37.555Z,100425.75
2018-07-04T13:25:22.219Z,100412.20
2018-07-04T13:28:06.980Z,100420.34
2018-07-04T13:30:51.393Z,100412.34
2018-07-04T13:33:36.104Z,100410.28
2018-07-04T13:36:20.603Z,100410.88
2018-07-04T13:39:05.703Z,100408.11
2018-07-04T13:41:50.358Z,100405.94
2018-07-04T13:44:35.009Z,100408.33
2018-07-04T13:47:19.667Z,100403.53
2018-07-04T13:50:04.652Z,100400.16
2018-07-04T13:52:49.542Z,100401.64
2018-07-04T13:55:34.128Z,100402.36
2018-07-04T13:58:18.872Z,100389.66
2018-07-04T14:01:03.569Z,100389.00
2018-07-04T14:03:48.449Z,100383.95
2018-07-04T14:06:33.036Z,100383.80
2018-07-04T14:09:18.222Z,100383.64
2018-07-04T14:12:02.839Z,100384.94
2018-07-04T14:14:47.539Z,100387.13
2018-07-04T14:17:32.311Z,100383.32
2018-07-04T14:20:17.035Z,100380.86
2018-07-04T14:23:01.627Z,100376.95
2018-07-04T14:25:46.343Z,100383.08
2018-07-04T14:28:31.191Z,100388.66
2018-07-04T14:31:15.842Z,100387.83
2018-07-04T14:34:00.451Z,100387.65
2018-07-04T14:36:45.103Z,100386.61
2018-07-04T14:39:29.815Z,100385.08
2018-07-04T14:42:14.683Z,100382.55
2018-07-04T14:44:59.402Z,100387.62
2018-07-04T14:47:44.319Z,100390.74
2018-07-04T14:50:29.457Z,100381.23
2018-07-04T14:53:14.731Z,100384.90
2018-07-04T14:56:00.669Z,100379.14
2018-07-04T14:58:45.874Z,100371.99
2018-07-04T15:01:31.027Z,100382.05
2018-07-04T15:04:16.230Z,100370.41
2018-07-04T15:07:01.377Z,100367.05
2018-07-04T15:09:45.927Z,100360.14
2018-07-04T15:12:31.180Z,100359.48
2018-07-04T15:15:16.074Z,100362.97
2018-07-04T15:18:01.275Z,100365.61
2018-07-04T15:20:46.003Z,100361.38
2018-07-04T15:23:30.821Z,100355.91
2018-07-04T15:26:15.852Z,100356.91
2018-07-04T15:29:00.481Z,100358.50
2018-07-04T15:31:45.474Z,100352.20
2018-07-04T15:34:30.794Z,100351.54
2018-07-04T15:37:15.234Z,100357.91
2018-07-04T15:40:00.164Z,100350.47
2018-07-04T15:42:45.449Z,100348.63
2018-07-04T15:45:30.401Z,100354.27
2018-07-04T15:48:15.107Z,100354.32
2018-07-04T15:50:59.742Z,100351.86
2018-07-04T15:53:44.544Z,100353.98
2018-07-04T15:56:29.078Z,100348.03
2018-07-04T15:59:13.813Z,100340.48
2018-07-04T16:01:58.396Z,100341.09
2018-07-04T16:04:43.098Z,100340.39
2018-07-04T16:07:27.832Z,100334.81
2018-07-04T16:10:12.917Z,100334.16
2018-07-04T16:12:57.569Z,100330.47
2018-07-04T16:15:42.367Z,100333.77
2018-07-04T16:18:27.113Z,100321.20
2018-07-04T16:21:11.726Z,100324.21
2018-07-04T16:23:56.520Z,100325.90
2018-07-04T16:26:41.395Z,100320.69
2018-07-04T16:29:26.114Z,100319.00
2018-07-04T16:32:10.866Z,100315.41
2018-07-04T16:34:55.535Z,100314.89
2018-07-04T16:37:40.190Z,100313.07
2018-07-04T16:40:24.930Z,100310.38
2018-07-04T16:43:09.738Z,100310.16
2018-07-04T16:45:54.890Z,100317.41
2018-07-04T16:48:39.360Z,100312.80
2018-07-04T16:51:24.168Z,100315.08
2018-07-04T16:54:08.804Z,100311.14
2018-07-04T16:56:53.562Z,100313.12
2018-07-04T16:59:38.278Z,100319.22
2018-07-04T17:02:22.882Z,100313.25
2018-07-04T17:05:07.603Z,100308.50
2018-07-04T17:07:52.282Z,100311.42
2018-07-04T17:10:37.148Z,100310.51
2018-07-04T17:13:22.033Z,100316.73
2018-07-04T17:16:06.958Z,100314.63
2018-07-04T17:18:51.560Z,100313.25
2018-07-04T17:21:36.386Z,100319.34
2018-07-04T17:24:21.138Z,100317.40
2018-07-04T17:27:05.941Z,100313.66
2018-07-04T17:29:50.665Z,100315.48
2018-07-04T17:32:35.236Z,100312.07
2018-07-04T17:35:19.895Z,100309.91
2018-07-04T17:38:04.802Z,100307.63
2018-07-04T17:40:49.490Z,100315.56
2018-07-04T17:43:34.312Z,100307.67
2018-07-04T17:46:19.236Z,100310.48
2018-07-04T17:49:03.888Z,100309.33
2018-07-04T17:51:48.609Z,100315.94
2018-07-04T17:54:33.376Z,100316.59
2018-07-04T17:57:18.067Z,100313.97
2018-07-04T18:00:02.798Z,100315.80
2018-07-04T18:02:47.599Z,100311.67
2018-07-04T18:05:32.393Z,100310.34
2018-07-04T18:08:17.033Z,100307.86
2018-07-04T18:11:01.800Z,100310.97
2018-07-04T18:13:46.512Z,100311.79
2018-07-04T18:16:31.286Z,100314.25
2018-07-04T18:19:16.037Z,100317.38
2018-07-04T18:22:00.859Z,100313.92
2018-07-04T18:24:45.532Z,100312.92
2018-07-04T18:27:30.117Z,100313.38
2018-07-04T18:30:14.910Z,100318.23
2018-07-04T18:32:59.656Z,100316.42
2018-07-04T18:35:44.345Z,100316.23
2018-07-04T18:38:28.956Z,100318.34
2018-07-04T18:41:13.503Z,100315.37
2018-07-04T18:43:58.284Z,100314.97
2018-07-04T18:46:42.941Z,100318.70
2018-07-04T18:49:27.601Z,100317.46
2018-07-04T18:52:12.283Z,100313.92
2018-07-04T18:54:57.056Z,100322.24
2018-07-04T18:57:41.525Z,100320.33
2018-07-04T19:00:26.107Z,100319.44
2018-07-04T19:03:10.695Z,100316.53
2018-07-04T19:05:55.292Z,100309.22
2018-07-04T19:08:39.854Z,100312.55
2018-07-04T19:11:24.648Z,100307.20
2018-07-04T19:14:09.438Z,100308.37
2018-07-04T19:16:54.213Z,100314.80
2018-07-04T19:19:38.902Z,100311.41
2018-07-04T19:22:23.502Z,100308.63
2018-07-04T19:25:08.026Z,100312.11
2018-07-04T19:27:52.679Z,100314.02
2018-07-04T19:30:37.259Z,100317.29
2018-07-04T19:33:22.108Z,100318.42
2018-07-04T19:36:08.108Z,100329.28
2018-07-04T19:38:52.672Z,100327.33
2018-07-04T19:41:37.925Z,100331.60
2018-07-04T19:44:22.505Z,100326.59
2018-07-04T19:47:07.419Z,100322.30
2018-07-04T19:49:52.451Z,100320.86
2018-07-04T19:52:37.139Z,100323.25
2018-07-04T19:55:21.729Z,100327.03
2018-07-04T19:58:07.028Z,100328.21
2018-07-04T20:00:51.843Z,100320.72
2018-07-04T20:03:36.988Z,100329.36
2018-07-04T20:06:23.057Z,100331.95
2018-07-04T20:09:08.336Z,100331.34
2018-07-04T20:11:53.511Z,100339.80
2018-07-04T20:14:38.612Z,100342.72
2018-07-04T20:17:23.870Z,100343.28
2018-07-04T20:20:08.839Z,100347.73
2018-07-04T20:22:53.818Z,100347.09
2018-07-04T20:25:39.020Z,100353.09
2018-07-04T20:28:23.937Z,100349.34
2018-07-04T20:31:08.662Z,100355.75
2018-07-04T20:33:53.544Z,100359.95
2018-07-04T20:36:38.561Z,100353.81
2018-07-04T20:39:24.896Z,100356.94
2018-07-04T20:42:09.636Z,100354.84
2018-07-04T20:44:54.430Z,100359.02
2018-07-04T20:47:39.146Z,100354.28
2018-07-04T20:50:23.639Z,100369.67
2018-07-04T20:53:08.352Z,100375.01
2018-07-04T20:55:53.119Z,100376.88
2018-07-04T20:58:38.260Z,100374.87
2018-07-04T21:01:22.978Z,100379.71
2018-07-04T21:04:07.604Z,100372.62
2018-07-04T21:06:52.124Z,100376.73
2018-07-04T21:09:36.775Z,100382.88
2018-07-04T21:12:21.402Z,100375.72
2018-07-04T21:15:06.146Z,100383.76
2018-07-04T21:17:50.629Z,100385.86
2018-07-04T21:20:35.332Z,100381.80
2018-07-04T21:23:19.896Z,100384.14
2018-07-04T21:26:04.539Z,100384.48
2018-07-04T21:28:49.185Z,100386.36
2018-07-04T21:31:33.869Z,100386.36
2018-07-04T21:34:18.541Z,100392.73
2018-07-04T21:37:03.363Z,100393.91
2018-07-04T21:39:48.064Z,100388.78
2018-07-04T21:42:32.660Z,100393.95
2018-07-04T21:45:17.319Z,100387.43
2018-07-04T21:48:01.957Z,100387.65
2018-07-04T21:50:46.692Z,100384.48
2018-07-04T21:53:31.488Z,100380.80
2018-07-04T21:56:16.252Z,100378.88
2018-07-04T21:59:00.916Z,100381.58
2018-07-04T22:01:45.663Z,100387.45
2018-07-04T22:04:30.359Z,100381.38
2018-07-04T22:07:15.044Z,100374.38
2018-07-04T22:09:59.697Z,100383.69
2018-07-04T22:12:44.343Z,100378.98
2018-07-04T22:15:29.149Z,100375.02
2018-07-04T22:18:13.790Z,100379.13
2018-07-04T22:20:58.231Z,100376.03
2018-07-04T22:23:42.866Z,100369.03
2018-07-04T22:26:27.506Z,100366.03
2018-07-04T22:29:12.084Z,100368.83
2018-07-04T22:31:56.931Z,100367.06
2018-07-04T22:34:41.427Z,100370.37
2018-07-04T22:37:25.946Z,100362.89
2018-07-04T22:40:10.745Z,100361.63
2018-07-04T22:42:55.300Z,100362.00
2018-07-04T22:45:40.720Z,100351.61
2018-07-04T22:48:25.396Z,100350.98
2018-07-04T22:51:09.916Z,100339.16
2018-07-04T22:53:54.705Z,100345.37
2018-07-04T22:56:39.458Z,100339.36
2018-07-04T22:59:24.099Z,100349.41
2018-07-04T23:02:08.707Z,100350.95
2018-07-04T23:04:53.316Z,100350.09
2018-07-04T23:07:38.656Z,100357.80
2018-07-04T23:10:23.300Z,100356.45
2018-07-04T23:13:08.069Z,100354.14
2018-07-04T23:15:52.856Z,100358.97
2018-07-04T23:18:37.424Z,100359.48
2018-07-04T23:21:21.947Z,100359.48
2018-07-04T23:24:06.662Z,100358.55
2018-07-04T23:26:52.136Z,100365.22
2018-07-04T23:29:36.731Z,100367.98
2018-07-04T23:32:21.403Z,100375.05
2018-07-04T23:35:06.022Z,100381.73
2018-07-04T23:37:50.828Z,100388.05
2018-07-04T23:40:35.641Z,100392.41
2018-07-04T23:43:20.421Z,100387.49
2018-07-04T23:46:05.071Z,100393.95
2018-07-04T23:48:49.754Z,100391.17
2018-07-04T23:51:34.460Z,100392.59
2018-07-04T23:54:19.204Z,100390.73
2018-07-04T23:59:48.387Z,100387.88
